sensor_id;sensor_type;location;lat;lon;timestamp;P1;durP1;ratioP1;P2;durP2;ratioP2
19776;SDS011;10047;42.490;26.012;2023-10-09T00:02:13;12.68;;;1.35;;
19776;SDS011;10047;42.490;26.012;2023-10-09T00:04:39;6.47;;;1.15;;
19776;SDS011;10047;42.490;26.012;2023-10-09T00:07:07;7.32;;;0.93;;
19776;SDS011;10047;42.490;26.012;2023-10-09T00:09:34;9.40;;;1.33;;
19776;SDS011;10047;42.490;26.012;2023-10-09T00:12:11;8.00;;;1.27;;
19776;SDS011;10047;42.490;26.012;2023-10-09T00:14:41;7.05;;;1.10;;
19776;SDS011;10047;42.490;26.012;2023-10-09T00:17:12;9.80;;;1.10;;
19776;SDS011;10047;42.490;26.012;2023-10-09T00:19:38;7.15;;;1.33;;
19776;SDS011;10047;42.490;26.012;2023-10-09T00:22:04;6.50;;;0.90;;
19776;SDS011;10047;42.490;26.012;2023-10-09T00:24:32;10.70;;;1.38;;
19776;SDS011;10047;42.490;26.012;2023-10-09T00:26:59;9.23;;;1.02;;
19776;SDS011;10047;42.490;26.012;2023-10-09T00:29:36;9.23;;;1.20;;
19776;SDS011;10047;42.490;26.012;2023-10-09T00:32:08;6.25;;;1.02;;
19776;SDS011;10047;42.490;26.012;2023-10-09T00:34:44;9.10;;;0.98;;
19776;SDS011;10047;42.490;26.012;2023-10-09T00:37:10;7.25;;;1.15;;
19776;SDS011;10047;42.490;26.012;2023-10-09T00:39:44;12.00;;;1.00;;
19776;SDS011;10047;42.490;26.012;2023-10-09T00:42:14;3.75;;;1.13;;
19776;SDS011;10047;42.490;26.012;2023-10-09T00:44:50;6.18;;;1.20;;
19776;SDS011;10047;42.490;26.012;2023-10-09T00:47:16;3.45;;;0.95;;
19776;SDS011;10047;42.490;26.012;2023-10-09T00:49:58;10.65;;;1.15;;
19776;SDS011;10047;42.490;26.012;2023-10-09T00:52:30;7.75;;;0.80;;
19776;SDS011;10047;42.490;26.012;2023-10-09T00:55:04;4.65;;;0.73;;
19776;SDS011;10047;42.490;26.012;2023-10-09T00:57:38;4.65;;;0.98;;
19776;SDS011;10047;42.490;26.012;2023-10-09T01:00:06;6.22;;;0.90;;
19776;SDS011;10047;42.490;26.012;2023-10-09T01:02:52;4.88;;;0.73;;
19776;SDS011;10047;42.490;26.012;2023-10-09T01:05:26;6.57;;;0.90;;
19776;SDS011;10047;42.490;26.012;2023-10-09T01:07:53;3.72;;;1.00;;
19776;SDS011;10047;42.490;26.012;2023-10-09T01:10:23;3.70;;;0.88;;
19776;SDS011;10047;42.490;26.012;2023-10-09T01:12:51;4.90;;;0.90;;
19776;SDS011;10047;42.490;26.012;2023-10-09T01:15:20;2.88;;;0.65;;
19776;SDS011;10047;42.490;26.012;2023-10-09T01:18:01;3.85;;;0.77;;
19776;SDS011;10047;42.490;26.012;2023-10-09T01:20:27;4.55;;;0.88;;
19776;SDS011;10047;42.490;26.012;2023-10-09T01:23:00;3.63;;;0.93;;
19776;SDS011;10047;42.490;26.012;2023-10-09T01:25:26;3.80;;;0.82;;
19776;SDS011;10047;42.490;26.012;2023-10-09T01:28:06;3.85;;;0.85;;
19776;SDS011;10047;42.490;26.012;2023-10-09T01:30:32;3.13;;;0.90;;
19776;SDS011;10047;42.490;26.012;2023-10-09T01:32:58;5.22;;;0.90;;
19776;SDS011;10047;42.490;26.012;2023-10-09T01:35:36;3.97;;;0.73;;
19776;SDS011;10047;42.490;26.012;2023-10-09T01:38:11;3.45;;;0.82;;
19776;SDS011;10047;42.490;26.012;2023-10-09T01:40:39;7.53;;;0.93;;
19776;SDS011;10047;42.490;26.012;2023-10-09T01:43:05;2.65;;;0.73;;
19776;SDS011;10047;42.490;26.012;2023-10-09T01:45:35;3.72;;;0.80;;
19776;SDS011;10047;42.490;26.012;2023-10-09T01:48:07;2.17;;;0.73;;
19776;SDS011;10047;42.490;26.012;2023-10-09T01:50:33;4.82;;;1.05;;
19776;SDS011;10047;42.490;26.012;2023-10-09T01:53:01;3.25;;;0.70;;
19776;SDS011;10047;42.490;26.012;2023-10-09T01:55:29;1.92;;;0.88;;
19776;SDS011;10047;42.490;26.012;2023-10-09T01:58:00;3.70;;;0.90;;
19776;SDS011;10047;42.490;26.012;2023-10-09T02:00:45;1.80;;;0.88;;
19776;SDS011;10047;42.490;26.012;2023-10-09T02:03:20;1.73;;;0.90;;
19776;SDS011;10047;42.490;26.012;2023-10-09T02:05:49;3.25;;;0.90;;
19776;SDS011;10047;42.490;26.012;2023-10-09T02:08:28;3.58;;;1.08;;
19776;SDS011;10047;42.490;26.012;2023-10-09T02:10:54;2.63;;;0.88;;
19776;SDS011;10047;42.490;26.012;2023-10-09T02:13:21;4.90;;;1.10;;
19776;SDS011;10047;42.490;26.012;2023-10-09T02:15:55;4.75;;;0.90;;
19776;SDS011;10047;42.490;26.012;2023-10-09T02:18:38;4.03;;;0.95;;
19776;SDS011;10047;42.490;26.012;2023-10-09T02:21:21;2.90;;;0.90;;
19776;SDS011;10047;42.490;26.012;2023-10-09T02:24:04;2.97;;;1.08;;
19776;SDS011;10047;42.490;26.012;2023-10-09T02:26:32;2.90;;;0.93;;
19776;SDS011;10047;42.490;26.012;2023-10-09T02:29:04;3.92;;;0.95;;
19776;SDS011;10047;42.490;26.012;2023-10-09T02:31:40;1.73;;;1.10;;
19776;SDS011;10047;42.490;26.012;2023-10-09T02:34:09;3.45;;;1.00;;
19776;SDS011;10047;42.490;26.012;2023-10-09T02:36:39;2.63;;;1.02;;
19776;SDS011;10047;42.490;26.012;2023-10-09T02:39:10;3.00;;;0.90;;
19776;SDS011;10047;42.490;26.012;2023-10-09T02:41:48;3.72;;;1.10;;
19776;SDS011;10047;42.490;26.012;2023-10-09T02:44:26;2.95;;;1.00;;
19776;SDS011;10047;42.490;26.012;2023-10-09T02:46:59;3.28;;;1.10;;
19776;SDS011;10047;42.490;26.012;2023-10-09T02:49:30;4.07;;;0.80;;
19776;SDS011;10047;42.490;26.012;2023-10-09T02:51:55;4.65;;;1.00;;
19776;SDS011;10047;42.490;26.012;2023-10-09T02:54:21;1.65;;;0.77;;
19776;SDS011;10047;42.490;26.012;2023-10-09T02:56:47;2.05;;;0.85;;
19776;SDS011;10047;42.490;26.012;2023-10-09T02:59:32;3.28;;;1.02;;
19776;SDS011;10047;42.490;26.012;2023-10-09T03:01:58;3.17;;;0.90;;
19776;SDS011;10047;42.490;26.012;2023-10-09T03:04:27;3.25;;;1.02;;
19776;SDS011;10047;42.490;26.012;2023-10-09T03:06:59;3.08;;;0.98;;
19776;SDS011;10047;42.490;26.012;2023-10-09T03:09:25;1.75;;;0.77;;
19776;SDS011;10047;42.490;26.012;2023-10-09T03:11:55;3.17;;;1.00;;
19776;SDS011;10047;42.490;26.012;2023-10-09T03:14:37;2.42;;;1.15;;
19776;SDS011;10047;42.490;26.012;2023-10-09T03:17:06;2.85;;;1.00;;
19776;SDS011;10047;42.490;26.012;2023-10-09T03:19:36;1.90;;;0.93;;
19776;SDS011;10047;42.490;26.012;2023-10-09T03:22:05;1.88;;;0.98;;
19776;SDS011;10047;42.490;26.012;2023-10-09T03:24:35;2.20;;;1.00;;
19776;SDS011;10047;42.490;26.012;2023-10-09T03:27:06;1.73;;;0.80;;
19776;SDS011;10047;42.490;26.012;2023-10-09T03:29:32;2.85;;;1.00;;
19776;SDS011;10047;42.490;26.012;2023-10-09T03:31:58;3.20;;;1.13;;
19776;SDS011;10047;42.490;26.012;2023-10-09T03:34:25;3.78;;;1.38;;
19776;SDS011;10047;42.490;26.012;2023-10-09T03:36:50;4.35;;;1.27;;
19776;SDS011;10047;42.490;26.012;2023-10-09T03:39:28;3.70;;;1.00;;
19776;SDS011;10047;42.490;26.012;2023-10-09T03:42:05;3.35;;;1.10;;
19776;SDS011;10047;42.490;26.012;2023-10-09T03:44:36;4.17;;;1.77;;
19776;SDS011;10047;42.490;26.012;2023-10-09T03:47:06;3.13;;;1.20;;
19776;SDS011;10047;42.490;26.012;2023-10-09T03:49:35;3.35;;;1.17;;
19776;SDS011;10047;42.490;26.012;2023-10-09T03:52:04;3.95;;;1.05;;
19776;SDS011;10047;42.490;26.012;2023-10-09T03:54:31;2.60;;;0.93;;
19776;SDS011;10047;42.490;26.012;2023-10-09T03:57:00;3.10;;;1.00;;
19776;SDS011;10047;42.490;26.012;2023-10-09T03:59:25;4.20;;;1.08;;
19776;SDS011;10047;42.490;26.012;2023-10-09T04:01:55;2.67;;;1.10;;
19776;SDS011;10047;42.490;26.012;2023-10-09T04:04:23;3.20;;;1.10;;
19776;SDS011;10047;42.490;26.012;2023-10-09T04:06:49;2.35;;;1.10;;
19776;SDS011;10047;42.490;26.012;2023-10-09T04:09:18;3.42;;;1.27;;
19776;SDS011;10047;42.490;26.012;2023-10-09T04:11:43;2.17;;;1.10;;
19776;SDS011;10047;42.490;26.012;2023-10-09T04:14:35;1.98;;;1.15;;
19776;SDS011;10047;42.490;26.012;2023-10-09T04:17:01;1.83;;;1.00;;
19776;SDS011;10047;42.490;26.012;2023-10-09T04:19:31;4.30;;;1.20;;
19776;SDS011;10047;42.490;26.012;2023-10-09T04:22:04;3.10;;;1.30;;
19776;SDS011;10047;42.490;26.012;2023-10-09T04:24:33;4.68;;;1.20;;
19776;SDS011;10047;42.490;26.012;2023-10-09T04:27:06;3.88;;;1.30;;
19776;SDS011;10047;42.490;26.012;2023-10-09T04:29:33;2.75;;;1.40;;
19776;SDS011;10047;42.490;26.012;2023-10-09T04:32:05;2.80;;;1.42;;
19776;SDS011;10047;42.490;26.012;2023-10-09T04:34:33;2.42;;;1.20;;
19776;SDS011;10047;42.490;26.012;2023-10-09T04:37:13;4.47;;;1.50;;
19776;SDS011;10047;42.490;26.012;2023-10-09T04:39:39;3.85;;;1.60;;
19776;SDS011;10047;42.490;26.012;2023-10-09T04:42:12;1.92;;;1.30;;
19776;SDS011;10047;42.490;26.012;2023-10-09T04:44:50;3.72;;;1.50;;
19776;SDS011;10047;42.490;26.012;2023-10-09T04:47:28;6.32;;;1.60;;
19776;SDS011;10047;42.490;26.012;2023-10-09T04:50:14;3.65;;;1.50;;
19776;SDS011;10047;42.490;26.012;2023-10-09T04:52:43;3.65;;;1.80;;
19776;SDS011;10047;42.490;26.012;2023-10-09T04:55:09;4.50;;;1.50;;
19776;SDS011;10047;42.490;26.012;2023-10-09T05:00:23;3.45;;;1.52;;
19776;SDS011;10047;42.490;26.012;2023-10-09T05:02:52;5.28;;;1.90;;
19776;SDS011;10047;42.490;26.012;2023-10-09T05:05:22;4.05;;;1.60;;
19776;SDS011;10047;42.490;26.012;2023-10-09T05:08:06;5.22;;;1.95;;
19776;SDS011;10047;42.490;26.012;2023-10-09T05:10:44;3.25;;;1.70;;
19776;SDS011;10047;42.490;26.012;2023-10-09T05:13:39;3.17;;;1.73;;
19776;SDS011;10047;42.490;26.012;2023-10-09T05:16:09;2.63;;;1.60;;
19776;SDS011;10047;42.490;26.012;2023-10-09T05:18:44;3.03;;;1.70;;
19776;SDS011;10047;42.490;26.012;2023-10-09T05:21:21;2.40;;;1.17;;
19776;SDS011;10047;42.490;26.012;2023-10-09T05:23:57;4.95;;;1.77;;
19776;SDS011;10047;42.490;26.012;2023-10-09T05:26:42;2.78;;;1.70;;
19776;SDS011;10047;42.490;26.012;2023-10-09T05:29:11;4.40;;;1.98;;
19776;SDS011;10047;42.490;26.012;2023-10-09T05:32:04;4.28;;;1.30;;
19776;SDS011;10047;42.490;26.012;2023-10-09T05:34:40;4.13;;;1.40;;
19776;SDS011;10047;42.490;26.012;2023-10-09T05:37:25;4.90;;;1.42;;
19776;SDS011;10047;42.490;26.012;2023-10-09T06:04:37;8.48;;;3.20;;
19776;SDS011;10047;42.490;26.012;2023-10-09T06:07:19;3.53;;;1.38;;
19776;SDS011;10047;42.490;26.012;2023-10-09T06:09:48;8.40;;;3.00;;
19776;SDS011;10047;42.490;26.012;2023-10-09T06:12:21;8.57;;;2.63;;
19776;SDS011;10047;42.490;26.012;2023-10-09T06:14:59;3.58;;;1.60;;
19776;SDS011;10047;42.490;26.012;2023-10-09T06:17:51;6.15;;;1.50;;
19776;SDS011;10047;42.490;26.012;2023-10-09T06:20:17;5.20;;;1.90;;
19776;SDS011;10047;42.490;26.012;2023-10-09T06:23:01;8.73;;;3.50;;
19776;SDS011;10047;42.490;26.012;2023-10-09T06:25:41;8.40;;;2.33;;
19776;SDS011;10047;42.490;26.012;2023-10-09T06:28:16;3.45;;;1.63;;
19776;SDS011;10047;42.490;26.012;2023-10-09T06:30:44;4.75;;;1.70;;
19776;SDS011;10047;42.490;26.012;2023-10-09T06:33:12;4.80;;;1.95;;
19776;SDS011;10047;42.490;26.012;2023-10-09T06:35:54;5.22;;;1.83;;
19776;SDS011;10047;42.490;26.012;2023-10-09T06:38:20;5.05;;;1.45;;
19776;SDS011;10047;42.490;26.012;2023-10-09T06:40:58;5.38;;;1.50;;
19776;SDS011;10047;42.490;26.012;2023-10-09T06:43:47;5.70;;;1.80;;
19776;SDS011;10047;42.490;26.012;2023-10-09T06:46:18;2.60;;;1.15;;
19776;SDS011;10047;42.490;26.012;2023-10-09T06:48:49;5.38;;;1.38;;
19776;SDS011;10047;42.490;26.012;2023-10-09T06:51:21;6.20;;;1.50;;
19776;SDS011;10047;42.490;26.012;2023-10-09T06:53:56;4.82;;;1.13;;
19776;SDS011;10047;42.490;26.012;2023-10-09T06:56:22;3.45;;;1.38;;
19776;SDS011;10047;42.490;26.012;2023-10-09T06:58:54;3.53;;;1.30;;
19776;SDS011;10047;42.490;26.012;2023-10-09T07:01:40;2.35;;;1.40;;
19776;SDS011;10047;42.490;26.012;2023-10-09T07:04:09;4.13;;;1.20;;
19776;SDS011;10047;42.490;26.012;2023-10-09T07:06:44;6.88;;;1.60;;
19776;SDS011;10047;42.490;26.012;2023-10-09T07:09:10;2.40;;;1.67;;
19776;SDS011;10047;42.490;26.012;2023-10-09T07:11:39;2.67;;;1.33;;
19776;SDS011;10047;42.490;26.012;2023-10-09T07:14:06;4.25;;;1.48;;
19776;SDS011;10047;42.490;26.012;2023-10-09T07:17:07;5.40;;;1.50;;
19776;SDS011;10047;42.490;26.012;2023-10-09T07:20:09;4.30;;;1.42;;
19776;SDS011;10047;42.490;26.012;2023-10-09T07:22:39;3.53;;;1.27;;
19776;SDS011;10047;42.490;26.012;2023-10-09T07:25:17;9.73;;;3.70;;
19776;SDS011;10047;42.490;26.012;2023-10-09T07:28:02;5.90;;;1.73;;
19776;SDS011;10047;42.490;26.012;2023-10-09T07:30:28;4.18;;;1.58;;
19776;SDS011;10047;42.490;26.012;2023-10-09T07:33:15;4.20;;;1.30;;
19776;SDS011;10047;42.490;26.012;2023-10-09T07:35:41;4.25;;;1.73;;
19776;SDS011;10047;42.490;26.012;2023-10-09T07:38:08;3.83;;;1.33;;
19776;SDS011;10047;42.490;26.012;2023-10-09T07:40:45;4.95;;;1.90;;
19776;SDS011;10047;42.490;26.012;2023-10-09T07:43:41;4.03;;;1.73;;
19776;SDS011;10047;42.490;26.012;2023-10-09T07:48:56;7.40;;;2.67;;
19776;SDS011;10047;42.490;26.012;2023-10-09T07:51:24;4.80;;;1.92;;
19776;SDS011;10047;42.490;26.012;2023-10-09T07:53:56;2.50;;;1.33;;
19776;SDS011;10047;42.490;26.012;2023-10-09T07:56:25;2.88;;;1.30;;
19776;SDS011;10047;42.490;26.012;2023-10-09T07:58:55;4.63;;;2.33;;
19776;SDS011;10047;42.490;26.012;2023-10-09T08:01:25;3.20;;;1.45;;
19776;SDS011;10047;42.490;26.012;2023-10-09T08:03:53;7.30;;;1.60;;
19776;SDS011;10047;42.490;26.012;2023-10-09T08:06:25;3.05;;;1.25;;
19776;SDS011;10047;42.490;26.012;2023-10-09T08:09:09;2.72;;;1.10;;
19776;SDS011;10047;42.490;26.012;2023-10-09T08:11:55;3.47;;;1.25;;
19776;SDS011;10047;42.490;26.012;2023-10-09T08:14:40;3.35;;;1.02;;
19776;SDS011;10047;42.490;26.012;2023-10-09T08:17:08;8.45;;;1.50;;
19776;SDS011;10047;42.490;26.012;2023-10-09T08:19:41;3.70;;;1.30;;
19776;SDS011;10047;42.490;26.012;2023-10-09T08:22:23;4.78;;;1.20;;
19776;SDS011;10047;42.490;26.012;2023-10-09T08:24:52;8.05;;;1.67;;
19776;SDS011;10047;42.490;26.012;2023-10-09T08:27:27;3.67;;;1.33;;
19776;SDS011;10047;42.490;26.012;2023-10-09T08:30:00;7.85;;;1.60;;
19776;SDS011;10047;42.490;26.012;2023-10-09T08:32:42;4.95;;;1.30;;
19776;SDS011;10047;42.490;26.012;2023-10-09T08:35:26;5.45;;;1.60;;
19776;SDS011;10047;42.490;26.012;2023-10-09T08:38:01;3.50;;;1.45;;
19776;SDS011;10047;42.490;26.012;2023-10-09T08:40:42;4.97;;;1.42;;
19776;SDS011;10047;42.490;26.012;2023-10-09T08:45:52;3.80;;;1.20;;
19776;SDS011;10047;42.490;26.012;2023-10-09T08:48:19;3.80;;;1.42;;
19776;SDS011;10047;42.490;26.012;2023-10-09T08:50:52;3.35;;;1.55;;
19776;SDS011;10047;42.490;26.012;2023-10-09T08:53:20;4.15;;;1.55;;
19776;SDS011;10047;42.490;26.012;2023-10-09T08:55:46;3.53;;;1.38;;
19776;SDS011;10047;42.490;26.012;2023-10-09T08:58:15;3.95;;;1.50;;
19776;SDS011;10047;42.490;26.012;2023-10-09T09:00:51;2.03;;;1.27;;
19776;SDS011;10047;42.490;26.012;2023-10-09T09:03:20;5.18;;;1.42;;
19776;SDS011;10047;42.490;26.012;2023-10-09T09:05:48;7.45;;;1.58;;
19776;SDS011;10047;42.490;26.012;2023-10-09T09:08:25;6.85;;;1.73;;
19776;SDS011;10047;42.490;26.012;2023-10-09T09:10:56;2.47;;;1.30;;
19776;SDS011;10047;42.490;26.012;2023-10-09T09:13:41;4.88;;;1.33;;
19776;SDS011;10047;42.490;26.012;2023-10-09T09:16:17;2.88;;;1.23;;
19776;SDS011;10047;42.490;26.012;2023-10-09T09:18:50;5.05;;;2.40;;
19776;SDS011;10047;42.490;26.012;2023-10-09T09:21:21;4.88;;;1.88;;
19776;SDS011;10047;42.490;26.012;2023-10-09T09:23:54;7.97;;;3.35;;
19776;SDS011;10047;42.490;26.012;2023-10-09T09:26:32;4.53;;;2.00;;
19776;SDS011;10047;42.490;26.012;2023-10-09T09:29:02;5.43;;;1.83;;
19776;SDS011;10047;42.490;26.012;2023-10-09T09:31:34;5.68;;;1.70;;
19776;SDS011;10047;42.490;26.012;2023-10-09T09:34:03;9.90;;;1.90;;
19776;SDS011;10047;42.490;26.012;2023-10-09T09:36:37;4.20;;;1.60;;
19776;SDS011;10047;42.490;26.012;2023-10-09T09:39:13;2.50;;;1.20;;
19776;SDS011;10047;42.490;26.012;2023-10-09T09:41:44;4.45;;;1.50;;
19776;SDS011;10047;42.490;26.012;2023-10-09T09:44:10;3.97;;;1.40;;
19776;SDS011;10047;42.490;26.012;2023-10-09T09:46:43;5.95;;;1.63;;
19776;SDS011;10047;42.490;26.012;2023-10-09T09:49:09;8.73;;;2.03;;
19776;SDS011;10047;42.490;26.012;2023-10-09T09:51:47;3.33;;;1.50;;
19776;SDS011;10047;42.490;26.012;2023-10-09T09:54:16;2.30;;;1.50;;
19776;SDS011;10047;42.490;26.012;2023-10-09T09:56:45;3.38;;;1.30;;
19776;SDS011;10047;42.490;26.012;2023-10-09T09:59:17;6.80;;;1.80;;
19776;SDS011;10047;42.490;26.012;2023-10-09T10:01:52;4.22;;;1.45;;
19776;SDS011;10047;42.490;26.012;2023-10-09T10:04:31;4.82;;;1.75;;
19776;SDS011;10047;42.490;26.012;2023-10-09T10:07:00;3.45;;;1.27;;
19776;SDS011;10047;42.490;26.012;2023-10-09T10:12:04;5.50;;;1.65;;
19776;SDS011;10047;42.490;26.012;2023-10-09T10:14:54;4.35;;;1.63;;
19776;SDS011;10047;42.490;26.012;2023-10-09T10:17:40;4.63;;;1.58;;
19776;SDS011;10047;42.490;26.012;2023-10-09T10:20:24;4.25;;;1.70;;
19776;SDS011;10047;42.490;26.012;2023-10-09T10:25:44;3.28;;;1.60;;
19776;SDS011;10047;42.490;26.012;2023-10-09T10:28:25;2.80;;;1.65;;
19776;SDS011;10047;42.490;26.012;2023-10-09T10:31:03;4.68;;;2.33;;
19776;SDS011;10047;42.490;26.012;2023-10-09T10:36:21;3.20;;;1.67;;
19776;SDS011;10047;42.490;26.012;2023-10-09T10:39:02;3.13;;;1.88;;
19776;SDS011;10047;42.490;26.012;2023-10-09T10:41:42;4.13;;;1.58;;
19776;SDS011;10047;42.490;26.012;2023-10-09T10:44:28;6.20;;;2.70;;
19776;SDS011;10047;42.490;26.012;2023-10-09T10:47:10;5.35;;;1.70;;
19776;SDS011;10047;42.490;26.012;2023-10-09T10:49:52;5.10;;;1.60;;
19776;SDS011;10047;42.490;26.012;2023-10-09T10:52:26;6.07;;;1.70;;
19776;SDS011;10047;42.490;26.012;2023-10-09T10:55:13;3.20;;;1.25;;
19776;SDS011;10047;42.490;26.012;2023-10-09T10:57:43;5.28;;;1.83;;
19776;SDS011;10047;42.490;26.012;2023-10-09T11:00:18;4.68;;;1.67;;
19776;SDS011;10047;42.490;26.012;2023-10-09T11:03:02;3.70;;;1.70;;
19776;SDS011;10047;42.490;26.012;2023-10-09T11:05:44;3.08;;;1.80;;
19776;SDS011;10047;42.490;26.012;2023-10-09T11:08:16;3.25;;;1.73;;
19776;SDS011;10047;42.490;26.012;2023-10-09T11:13:25;3.10;;;1.30;;
19776;SDS011;10047;42.490;26.012;2023-10-09T11:16:01;4.70;;;1.48;;
19776;SDS011;10047;42.490;26.012;2023-10-09T11:18:54;3.95;;;1.50;;
19776;SDS011;10047;42.490;26.012;2023-10-09T11:21:22;5.82;;;1.58;;
19776;SDS011;10047;42.490;26.012;2023-10-09T11:23:55;3.13;;;1.55;;
19776;SDS011;10047;42.490;26.012;2023-10-09T11:26:44;4.72;;;1.67;;
19776;SDS011;10047;42.490;26.012;2023-10-09T11:29:18;4.40;;;1.40;;
19776;SDS011;10047;42.490;26.012;2023-10-09T11:32:03;3.80;;;1.60;;
19776;SDS011;10047;42.490;26.012;2023-10-09T11:34:49;3.53;;;1.80;;
19776;SDS011;10047;42.490;26.012;2023-10-09T11:37:19;3.92;;;1.80;;
19776;SDS011;10047;42.490;26.012;2023-10-09T11:39:56;3.10;;;1.25;;
19776;SDS011;10047;42.490;26.012;2023-10-09T11:42:29;5.78;;;1.65;;
19776;SDS011;10047;42.490;26.012;2023-10-09T11:45:23;5.63;;;2.00;;
19776;SDS011;10047;42.490;26.012;2023-10-09T11:47:49;4.35;;;1.65;;
19776;SDS011;10047;42.490;26.012;2023-10-09T11:53:17;4.85;;;1.80;;
19776;SDS011;10047;42.490;26.012;2023-10-09T11:55:49;5.50;;;1.65;;
19776;SDS011;10047;42.490;26.012;2023-10-09T11:58:17;4.25;;;1.77;;
19776;SDS011;10047;42.490;26.012;2023-10-09T12:00:57;4.90;;;1.63;;
19776;SDS011;10047;42.490;26.012;2023-10-09T12:03:30;6.53;;;1.70;;
19776;SDS011;10047;42.490;26.012;2023-10-09T12:05:57;7.70;;;1.90;;
19776;SDS011;10047;42.490;26.012;2023-10-09T12:08:33;5.13;;;1.50;;
19776;SDS011;10047;42.490;26.012;2023-10-09T12:10:58;3.97;;;2.00;;
19776;SDS011;10047;42.490;26.012;2023-10-09T12:13:27;3.47;;;1.70;;
19776;SDS011;10047;42.490;26.012;2023-10-09T12:15:54;3.03;;;1.65;;
19776;SDS011;10047;42.490;26.012;2023-10-09T12:18:19;4.65;;;1.70;;
19776;SDS011;10047;42.490;26.012;2023-10-09T12:20:47;4.32;;;1.65;;
19776;SDS011;10047;42.490;26.012;2023-10-09T12:23:27;8.18;;;1.77;;
19776;SDS011;10047;42.490;26.012;2023-10-09T12:25:53;4.45;;;1.63;;
19776;SDS011;10047;42.490;26.012;2023-10-09T12:28:21;3.58;;;1.67;;
19776;SDS011;10047;42.490;26.012;2023-10-09T12:30:48;3.47;;;1.58;;
19776;SDS011;10047;42.490;26.012;2023-10-09T12:33:17;3.78;;;1.67;;
19776;SDS011;10047;42.490;26.012;2023-10-09T12:35:53;7.97;;;1.88;;
19776;SDS011;10047;42.490;26.012;2023-10-09T12:38:25;7.65;;;1.73;;
19776;SDS011;10047;42.490;26.012;2023-10-09T12:43:33;5.70;;;2.10;;
19776;SDS011;10047;42.490;26.012;2023-10-09T12:46:06;6.20;;;1.52;;
19776;SDS011;10047;42.490;26.012;2023-10-09T12:48:32;5.45;;;1.80;;
19776;SDS011;10047;42.490;26.012;2023-10-09T12:50:58;5.85;;;1.77;;
19776;SDS011;10047;42.490;26.012;2023-10-09T12:53:31;4.53;;;1.80;;
19776;SDS011;10047;42.490;26.012;2023-10-09T12:55:57;5.07;;;1.88;;
19776;SDS011;10047;42.490;26.012;2023-10-09T12:58:23;5.35;;;2.00;;
19776;SDS011;10047;42.490;26.012;2023-10-09T13:00:51;4.40;;;1.77;;
19776;SDS011;10047;42.490;26.012;2023-10-09T13:03:17;7.00;;;1.85;;
19776;SDS011;10047;42.490;26.012;2023-10-09T13:05:47;10.30;;;2.00;;
19776;SDS011;10047;42.490;26.012;2023-10-09T13:08:23;10.52;;;1.80;;
19776;SDS011;10047;42.490;26.012;2023-10-09T13:10:56;5.25;;;1.88;;
19776;SDS011;10047;42.490;26.012;2023-10-09T13:13:28;5.10;;;1.88;;
19776;SDS011;10047;42.490;26.012;2023-10-09T13:16:15;6.25;;;1.70;;
19776;SDS011;10047;42.490;26.012;2023-10-09T13:18:52;5.25;;;1.75;;
19776;SDS011;10047;42.490;26.012;2023-10-09T13:21:20;5.45;;;1.83;;
19776;SDS011;10047;42.490;26.012;2023-10-09T13:23:47;5.35;;;1.75;;
19776;SDS011;10047;42.490;26.012;2023-10-09T13:26:15;4.55;;;1.88;;
19776;SDS011;10047;42.490;26.012;2023-10-09T13:28:50;5.50;;;1.60;;
19776;SDS011;10047;42.490;26.012;2023-10-09T13:31:17;3.90;;;1.52;;
19776;SDS011;10047;42.490;26.012;2023-10-09T13:33:46;4.55;;;1.50;;
19776;SDS011;10047;42.490;26.012;2023-10-09T13:36:12;3.42;;;1.60;;
19776;SDS011;10047;42.490;26.012;2023-10-09T13:38:43;4.10;;;1.60;;
19776;SDS011;10047;42.490;26.012;2023-10-09T13:41:09;4.57;;;1.63;;
19776;SDS011;10047;42.490;26.012;2023-10-09T13:43:41;3.42;;;1.73;;
19776;SDS011;10047;42.490;26.012;2023-10-09T13:46:11;4.97;;;1.75;;
19776;SDS011;10047;42.490;26.012;2023-10-09T13:48:40;5.18;;;1.73;;
19776;SDS011;10047;42.490;26.012;2023-10-09T13:51:10;6.22;;;1.60;;
19776;SDS011;10047;42.490;26.012;2023-10-09T13:53:42;4.60;;;1.77;;
19776;SDS011;10047;42.490;26.012;2023-10-09T13:56:20;3.25;;;1.70;;
19776;SDS011;10047;42.490;26.012;2023-10-09T13:58:52;4.25;;;1.70;;
19776;SDS011;10047;42.490;26.012;2023-10-09T14:01:19;9.13;;;2.40;;
19776;SDS011;10047;42.490;26.012;2023-10-09T14:03:57;4.80;;;2.17;;
19776;SDS011;10047;42.490;26.012;2023-10-09T14:06:24;3.65;;;1.63;;
19776;SDS011;10047;42.490;26.012;2023-10-09T14:08:56;3.35;;;1.88;;
19776;SDS011;10047;42.490;26.012;2023-10-09T14:11:22;3.05;;;1.58;;
19776;SDS011;10047;42.490;26.012;2023-10-09T14:13:49;6.53;;;2.05;;
19776;SDS011;10047;42.490;26.012;2023-10-09T14:16:16;4.50;;;2.00;;
19776;SDS011;10047;42.490;26.012;2023-10-09T14:18:55;7.22;;;1.48;;
19776;SDS011;10047;42.490;26.012;2023-10-09T14:21:26;5.53;;;1.90;;
19776;SDS011;10047;42.490;26.012;2023-10-09T14:23:55;5.68;;;1.80;;
19776;SDS011;10047;42.490;26.012;2023-10-09T14:26:25;5.90;;;2.35;;
19776;SDS011;10047;42.490;26.012;2023-10-09T14:28:52;7.72;;;1.85;;
19776;SDS011;10047;42.490;26.012;2023-10-09T14:31:18;6.93;;;1.95;;
19776;SDS011;10047;42.490;26.012;2023-10-09T14:33:52;5.20;;;1.50;;
19776;SDS011;10047;42.490;26.012;2023-10-09T14:36:18;6.15;;;1.70;;
19776;SDS011;10047;42.490;26.012;2023-10-09T14:38:47;8.00;;;1.73;;
19776;SDS011;10047;42.490;26.012;2023-10-09T14:41:17;9.88;;;1.90;;
19776;SDS011;10047;42.490;26.012;2023-10-09T14:43:46;7.28;;;2.17;;
19776;SDS011;10047;42.490;26.012;2023-10-09T14:46:13;6.45;;;1.75;;
19776;SDS011;10047;42.490;26.012;2023-10-09T14:48:39;7.45;;;2.30;;
19776;SDS011;10047;42.490;26.012;2023-10-09T14:51:06;4.45;;;1.80;;
19776;SDS011;10047;42.490;26.012;2023-10-09T14:53:35;6.57;;;1.67;;
19776;SDS011;10047;42.490;26.012;2023-10-09T14:56:01;5.40;;;1.48;;
19776;SDS011;10047;42.490;26.012;2023-10-09T14:58:33;8.13;;;1.60;;
19776;SDS011;10047;42.490;26.012;2023-10-09T15:01:09;5.13;;;1.60;;
19776;SDS011;10047;42.490;26.012;2023-10-09T15:03:35;5.20;;;1.80;;
19776;SDS011;10047;42.490;26.012;2023-10-09T15:06:02;4.50;;;1.70;;
19776;SDS011;10047;42.490;26.012;2023-10-09T15:08:28;6.97;;;2.20;;
19776;SDS011;10047;42.490;26.012;2023-10-09T15:10:56;3.10;;;1.65;;
19776;SDS011;10047;42.490;26.012;2023-10-09T15:13:21;4.22;;;1.90;;
19776;SDS011;10047;42.490;26.012;2023-10-09T15:15:53;5.15;;;1.85;;
19776;SDS011;10047;42.490;26.012;2023-10-09T15:18:20;6.45;;;1.95;;
19776;SDS011;10047;42.490;26.012;2023-10-09T15:20:46;8.07;;;1.88;;
19776;SDS011;10047;42.490;26.012;2023-10-09T15:23:13;10.98;;;2.08;;
19776;SDS011;10047;42.490;26.012;2023-10-09T15:25:38;5.78;;;1.80;;
19776;SDS011;10047;42.490;26.012;2023-10-09T15:28:07;9.20;;;1.98;;
19776;SDS011;10047;42.490;26.012;2023-10-09T15:30:33;6.30;;;1.90;;
19776;SDS011;10047;42.490;26.012;2023-10-09T15:32:59;6.97;;;1.92;;
19776;SDS011;10047;42.490;26.012;2023-10-09T15:35:26;6.22;;;2.00;;
19776;SDS011;10047;42.490;26.012;2023-10-09T15:37:53;7.95;;;2.15;;
19776;SDS011;10047;42.490;26.012;2023-10-09T15:40:19;10.75;;;2.40;;
19776;SDS011;10047;42.490;26.012;2023-10-09T15:42:49;7.15;;;2.40;;
19776;SDS011;10047;42.490;26.012;2023-10-09T15:45:15;11.07;;;2.35;;
19776;SDS011;10047;42.490;26.012;2023-10-09T15:47:41;7.38;;;2.28;;
19776;SDS011;10047;42.490;26.012;2023-10-09T15:50:10;10.57;;;2.80;;
19776;SDS011;10047;42.490;26.012;2023-10-09T15:52:38;10.10;;;3.10;;
19776;SDS011;10047;42.490;26.012;2023-10-09T15:55:04;14.70;;;3.58;;